createdAt,value
2019-05-07T00:00:08.519Z,1.6
2019-05-07T00:00:44.711Z,1.5
2019-05-07T00:03:28.719Z,0.9
2019-05-07T00:04:08.577Z,1.1
2019-05-07T00:05:22.653Z,1.3
2019-05-07T00:06:22.833Z,1.9
2019-05-07T00:06:56.499Z,1.5
2019-05-07T00:07:32.939Z,0.9
2019-05-07T00:08:45.898Z,1.2
2019-05-07T00:09:33.156Z,1.5
2019-05-07T00:10:44.547Z,1.5
2019-05-07T00:11:23.082Z,1.4
2019-05-07T00:12:33.162Z,1.8
2019-05-07T00:13:45.325Z,1
2019-05-07T00:14:20.534Z,1.3
2019-05-07T00:15:05.075Z,1.6
2019-05-07T00:16:44.513Z,1.8
2019-05-07T00:17:22.599Z,1.2
2019-05-07T00:18:33.152Z,0.8
2019-05-07T00:19:44.599Z,0.8
2019-05-07T00:20:20.466Z,1
2019-05-07T00:21:33.498Z,0.8
2019-05-07T00:22:44.463Z,0.6
2019-05-07T00:23:20.554Z,0.8
2019-05-07T00:24:33.997Z,0.8
2019-05-07T00:25:44.532Z,0.8
2019-05-07T00:26:22.946Z,0.8
2019-05-07T00:27:32.957Z,0.8
2019-05-07T00:28:44.483Z,0.2
2019-05-07T00:29:22.877Z,0.4
2019-05-07T00:30:34.104Z,0.8
2019-05-07T00:31:44.481Z,0.4
2019-05-07T00:32:23.164Z,0.4
2019-05-07T00:33:33.218Z,0.8
2019-05-07T00:34:44.559Z,0.6
2019-05-07T00:35:22.816Z,0.2
2019-05-07T00:36:33.241Z,0.6
2019-05-07T00:37:44.520Z,0.8
2019-05-07T00:38:22.886Z,0.8
2019-05-07T00:39:33.659Z,0.9
2019-05-07T00:40:44.507Z,0.9
2019-05-07T00:41:22.733Z,0.8
2019-05-07T00:42:33.560Z,0.4
2019-05-07T00:43:44.467Z,0.6
2019-05-07T00:44:22.857Z,0.4
2019-05-07T00:45:33.469Z,0.8
2019-05-07T00:46:44.542Z,0.8
2019-05-07T00:47:22.736Z,0.8
2019-05-07T00:48:33.732Z,0.8
2019-05-07T00:49:44.543Z,0.8
2019-05-07T00:50:22.712Z,0.8
2019-05-07T00:51:34.338Z,0.8
2019-05-07T00:52:13.691Z,0.8
2019-05-07T00:52:56.495Z,0.8
2019-05-07T00:53:33.725Z,0.8
2019-05-07T00:54:20.470Z,0.8
2019-05-07T00:55:44.435Z,0.8
2019-05-07T00:56:34.052Z,1.2
2019-05-07T00:58:26.974Z,1.1
2019-05-07T00:59:08.465Z,1.3
2019-05-07T00:59:44.561Z,1.5
2019-05-07T01:00:34.124Z,1.6
2019-05-07T01:01:22.977Z,1.3
2019-05-07T01:03:33.693Z,1.3
2019-05-07T01:06:44.509Z,1.7
2019-05-07T01:07:22.618Z,1.1
2019-05-07T01:08:23.077Z,2.1
2019-05-07T01:09:08.507Z,1.9
2019-05-07T01:09:44.463Z,1.6
2019-05-07T01:10:56.541Z,1.1
2019-05-07T01:11:44.541Z,1
2019-05-07T01:12:22.932Z,1.2
2019-05-07T01:13:44.458Z,1.3
2019-05-07T01:15:35.440Z,1.5
2019-05-07T01:16:08.591Z,1.8
2019-05-07T01:17:08.513Z,1.3
2019-05-07T01:17:44.457Z,1.3
2019-05-07T01:19:08.420Z,2
2019-05-07T01:19:44.538Z,2
2019-05-07T01:20:22.844Z,1.9
2019-05-07T01:21:08.553Z,1.5
2019-05-07T01:22:22.805Z,1.8
2019-05-07T01:23:33.051Z,1.5
2019-05-07T01:24:08.458Z,1.2
2019-05-07T01:25:22.802Z,1.3
2019-05-07T01:26:56.518Z,1.8
2019-05-07T01:27:33.070Z,2
2019-05-07T01:28:08.472Z,2.1
2019-05-07T01:29:23.040Z,0.6
2019-05-07T01:29:56.464Z,0.8
2019-05-07T01:31:08.527Z,1.5
2019-05-07T01:32:22.675Z,1
2019-05-07T01:32:56.439Z,1.4
2019-05-07T01:34:08.498Z,0.8
2019-05-07T01:35:22.859Z,0.4
2019-05-07T01:35:56.548Z,0.6
2019-05-07T01:37:08.490Z,0.9
2019-05-07T01:38:22.425Z,0.4
2019-05-07T01:38:56.487Z,0.8
2019-05-07T01:40:08.427Z,1.1
2019-05-07T01:41:20.478Z,0.9
2019-05-07T01:41:56.484Z,1.1
2019-05-07T01:42:37.131Z,1
2019-05-07T01:44:22.825Z,1.2
2019-05-07T01:45:25.364Z,1.5
2019-05-07T01:45:56.475Z,1.7
2019-05-07T01:46:33.301Z,1.3
2019-05-07T01:47:56.502Z,1.4
2019-05-07T01:48:33.150Z,1
2019-05-07T01:49:44.437Z,1.3
2019-05-07T01:50:56.474Z,1.2
2019-05-07T01:51:44.487Z,1.2
2019-05-07T01:52:34.014Z,0.8
2019-05-07T01:53:08.452Z,1.4
2019-05-07T01:53:56.455Z,2.1
2019-05-07T01:54:48.155Z,1.7
2019-05-07T01:55:44.476Z,1.4
2019-05-07T01:56:20.429Z,1.6
2019-05-07T01:56:56.551Z,1.7
2019-05-07T01:57:56.483Z,0.9
2019-05-07T01:58:44.438Z,1
2019-05-07T01:59:33.072Z,1
2019-05-07T02:00:22.868Z,0.7
2019-05-07T02:00:56.545Z,0.9
2019-05-07T02:01:36.548Z,0.9
2019-05-07T02:03:20.522Z,1
2019-05-07T02:04:08.542Z,0.7
2019-05-07T02:05:20.461Z,0.6
2019-05-07T02:06:08.469Z,1.1
2019-05-07T02:07:22.573Z,0.6
2019-05-07T02:07:56.506Z,0.2
2019-05-07T02:09:44.533Z,1.1
2019-05-07T02:10:22.615Z,1.5
2019-05-07T02:10:56.459Z,1.3
2019-05-07T02:12:22.741Z,0.6
2019-05-07T02:12:56.518Z,0.6
2019-05-07T02:13:34.632Z,1.1
2019-05-07T02:15:33.140Z,1.3
2019-05-07T02:16:08.595Z,1.4
2019-05-07T02:16:44.504Z,0.7
2019-05-07T02:18:56.454Z,0.7
2019-05-07T02:19:33.796Z,0.4
2019-05-07T02:20:08.551Z,0.4
2019-05-07T02:21:44.498Z,0.6
2019-05-07T02:22:32.901Z,0.6
2019-05-07T02:23:33.875Z,0.9
2019-05-07T02:24:22.689Z,0.6
2019-05-07T02:25:08.533Z,0.6
2019-05-07T02:25:44.498Z,0.8
2019-05-07T02:26:22.820Z,0.6
2019-05-07T02:27:08.516Z,0.6
2019-05-07T02:27:56.476Z,0.8
2019-05-07T02:28:56.516Z,0.6
2019-05-07T02:29:44.495Z,0.6
2019-05-07T02:30:24.471Z,0.4
2019-05-07T02:31:34.660Z,0.4
2019-05-07T02:33:35.904Z,0.9
2019-05-07T02:34:56.436Z,0.6
2019-05-07T02:36:08.555Z,0.8
2019-05-07T02:38:23.833Z,0.8
2019-05-07T02:38:56.451Z,0.8
2019-05-07T02:39:34.141Z,0.8
2019-05-07T02:41:08.518Z,0.9
2019-05-07T02:41:45.240Z,0.6
2019-05-07T02:43:08.483Z,0.9
2019-05-07T02:48:34.190Z,0.6
2019-05-07T02:49:44.883Z,0.4
2019-05-07T02:51:56.462Z,0
2019-05-07T02:52:33.286Z,0.4
2019-05-07T02:53:08.495Z,0.4
2019-05-07T02:54:23.756Z,0.2
2019-05-07T02:55:23.795Z,0.4
2019-05-07T02:56:34.294Z,0.6
2019-05-07T02:57:35.053Z,0.4
2019-05-07T02:58:08.566Z,0.2
2019-05-07T02:58:44.527Z,0.4
2019-05-07T03:00:08.470Z,0.9
2019-05-07T03:02:08.540Z,0.6
2019-05-07T03:02:56.537Z,0.8
2019-05-07T03:03:34.488Z,0.6
2019-05-07T03:04:08.459Z,0.6
2019-05-07T03:04:56.487Z,0.4
2019-05-07T03:05:35.837Z,0.6
2019-05-07T03:06:34.858Z,1
2019-05-07T03:08:08.499Z,0.2
2019-05-07T03:09:08.500Z,0.6
2019-05-07T03:09:44.478Z,0.6
2019-05-07T03:10:24.725Z,0.4
2019-05-07T03:11:34.961Z,0.2
2019-05-07T03:12:08.463Z,0.3
2019-05-07T03:13:24.757Z,0
2019-05-07T03:14:33.262Z,0.2
2019-05-07T03:15:34.298Z,0.2
2019-05-07T03:16:52.817Z,0.4
2019-05-07T03:17:34.243Z,0.6
2019-05-07T03:18:08.503Z,0.6
2019-05-07T03:18:44.992Z,0.4
2019-05-07T03:20:08.443Z,0.8
2019-05-07T03:21:33.760Z,0
2019-05-07T03:22:08.498Z,0
2019-05-07T03:23:23.533Z,0.6
2019-05-07T03:23:56.527Z,0.2
2019-05-07T03:24:35.231Z,0
2019-05-07T03:26:08.517Z,0.2
2019-05-07T03:26:44.516Z,0.2
2019-05-07T03:27:24.126Z,0.4
2019-05-07T03:28:34.498Z,0.2
2019-05-07T03:29:08.472Z,0
2019-05-07T03:30:37.350Z,0.6
2019-05-07T03:31:08.574Z,0.8
2019-05-07T03:31:48.373Z,0.4
2019-05-07T03:33:37.790Z,0.4
2019-05-07T03:34:38.169Z,0.2
2019-05-07T03:35:08.949Z,0.6
2019-05-07T03:35:48.097Z,0.2
2019-05-07T03:37:45.363Z,1.5
2019-05-07T03:38:23.680Z,1.6
2019-05-07T03:39:34.683Z,1.3
2019-05-07T04:11:23.932Z,0.6
2019-05-07T04:20:56.503Z,0.8
2019-05-07T04:21:44.505Z,0.6
2019-05-07T04:22:44.537Z,1.1
2019-05-07T04:23:24.266Z,1
2019-05-07T04:24:08.492Z,0.9
2019-05-07T04:24:44.459Z,1
2019-05-07T04:25:56.547Z,1.4
2019-05-07T04:26:34.869Z,1.6
2019-05-07T04:27:08.559Z,1.3
2019-05-07T04:27:47.894Z,1
2019-05-07T04:28:56.495Z,0.9
2019-05-07T04:29:35.805Z,0.9
2019-05-07T04:30:56.439Z,0.6
2019-05-07T04:43:34.526Z,1.5
2019-05-07T04:47:08.433Z,1.3
2019-05-07T04:48:09.651Z,0.8
2019-05-07T04:49:56.486Z,1.2
2019-05-07T04:50:56.518Z,0.9
2019-05-07T04:51:44.512Z,0.9
2019-05-07T04:52:56.493Z,1
2019-05-07T04:53:33.714Z,1.2
2019-05-07T04:56:56.446Z,1.2
2019-05-07T05:01:08.484Z,0.8
2019-05-07T05:03:24.040Z,1.2
2019-05-07T05:05:33.860Z,1.2
2019-05-07T05:06:08.490Z,1.5
2019-05-07T05:06:44.460Z,1.3
2019-05-07T05:07:34.449Z,1
2019-05-07T05:13:34.032Z,1.1
2019-05-07T05:17:54.663Z,1.3
2019-05-07T05:20:03.975Z,1.6
2019-05-07T05:20:34.641Z,1.2
2019-05-07T05:21:33.144Z,0.9
2019-05-07T05:24:57.011Z,0.4
2019-05-07T05:28:22.870Z,0.8
2019-05-07T05:33:33.337Z,0.6
2019-05-07T05:35:45.177Z,1
2019-05-07T05:44:33.037Z,0.4
2019-05-07T05:45:56.499Z,0.6
2019-05-07T05:48:09.197Z,0.2
2019-05-07T05:48:56.543Z,0.7
2019-05-07T05:49:33.071Z,1.1
2019-05-07T05:52:08.523Z,0.8
2019-05-07T05:53:08.408Z,0.8
2019-05-07T05:53:44.491Z,0.6
2019-05-07T05:54:44.400Z,0.6
2019-05-07T05:56:44.481Z,0.9
2019-05-07T05:57:56.394Z,0.6
2019-05-07T06:00:22.912Z,0.6
2019-05-07T06:06:08.450Z,0.6
2019-05-07T06:06:44.401Z,0.8
2019-05-07T06:07:44.431Z,0.7
2019-05-07T06:09:22.627Z,0.8
2019-05-07T06:10:22.936Z,1.1
2019-05-07T06:10:56.407Z,0.9
2019-05-07T06:11:44.419Z,0.4
2019-05-07T06:12:33.767Z,0.6
2019-05-07T06:13:44.468Z,0.6
2019-05-07T06:15:44.442Z,1
2019-05-07T06:16:22.793Z,0.9
2019-05-07T06:17:08.503Z,0.9
2019-05-07T06:17:56.502Z,0.8
2019-05-07T06:20:08.490Z,0.9
2019-05-07T06:20:44.454Z,0.9
2019-05-07T06:21:44.535Z,0.7
2019-05-07T06:22:22.780Z,0.6
2019-05-07T06:22:56.402Z,0.9
2019-05-07T06:24:08.450Z,0.8
2019-05-07T06:24:44.483Z,0.8
2019-05-07T06:25:25.308Z,0.9
2019-05-07T06:27:08.434Z,0.6
2019-05-07T06:27:44.388Z,0.8
2019-05-07T06:28:23.128Z,0.9
2019-05-07T06:30:56.406Z,0.7
2019-05-07T06:31:56.419Z,1.1
2019-05-07T06:32:56.529Z,1.5
2019-05-07T06:34:22.817Z,0.9
2019-05-07T06:34:56.377Z,1
2019-05-07T06:35:33.602Z,0.8
2019-05-07T06:36:44.465Z,0.9
2019-05-07T06:37:22.574Z,0.8
2019-05-07T06:38:32.897Z,0.8
2019-05-07T06:39:44.378Z,0.8
2019-05-07T06:41:08.495Z,0.8
2019-05-07T06:42:08.392Z,0.8
2019-05-07T06:42:44.504Z,0.8
2019-05-07T06:43:22.665Z,0.6
2019-05-07T06:44:32.849Z,0.8
2019-05-07T06:45:08.467Z,0.8
2019-05-07T06:46:20.401Z,0.4
2019-05-07T06:47:32.817Z,0.4
2019-05-07T06:48:46.768Z,0.4
2019-05-07T06:50:33.544Z,0.8
2019-05-07T06:51:22.856Z,0.7
2019-05-07T06:52:08.466Z,0.9
2019-05-07T06:52:56.429Z,1.2
2019-05-07T06:54:08.482Z,1.3
2019-05-07T06:54:56.482Z,0.8
2019-05-07T06:55:33.245Z,0.8
2019-05-07T06:57:08.460Z,1
2019-05-07T06:59:22.939Z,0.9
2019-05-07T06:59:56.382Z,0.8
2019-05-07T07:00:32.811Z,0.9
2019-05-07T07:01:44.407Z,0.8
2019-05-07T07:02:22.970Z,1
2019-05-07T07:03:08.379Z,0.7
2019-05-07T07:03:44.476Z,0.8
2019-05-07T07:04:33.930Z,0.8
2019-05-07T07:05:44.408Z,1.1
2019-05-07T07:06:20.406Z,0.8
2019-05-07T07:07:38.255Z,0.6
2019-05-07T07:08:44.385Z,0.8
2019-05-07T07:09:23.104Z,1.1
2019-05-07T07:10:33.181Z,0.8
2019-05-07T07:11:44.615Z,0.8
2019-05-07T07:12:26.555Z,0.6
2019-05-07T07:13:33.107Z,0.8
2019-05-07T07:14:44.426Z,0.9
2019-05-07T07:15:22.588Z,0.9
2019-05-07T07:16:33.431Z,0.8
2019-05-07T07:17:44.392Z,0.8
2019-05-07T07:18:20.386Z,0.6
2019-05-07T07:19:36.712Z,0.6
2019-05-07T07:20:44.350Z,0.8
2019-05-07T07:21:22.745Z,0.8
2019-05-07T07:22:32.854Z,1.2
2019-05-07T07:23:44.456Z,0.6
2019-05-07T07:24:22.897Z,0.4
2019-05-07T07:25:33.448Z,0.9
2019-05-07T07:26:44.430Z,1.1
2019-05-07T07:27:22.912Z,1.2
2019-05-07T07:28:33.619Z,0.8
2019-05-07T07:29:45.899Z,0.8
2019-05-07T07:30:22.566Z,0.9
2019-05-07T07:31:32.836Z,1.1
2019-05-07T07:32:44.339Z,0.8
2019-05-07T07:33:22.698Z,1.1
2019-05-07T07:34:34.134Z,0.5
2019-05-07T07:35:44.443Z,1.2
2019-05-07T07:36:22.828Z,1.3
2019-05-07T07:37:16.050Z,1.1
2019-05-07T07:38:44.427Z,0.8
2019-05-07T07:39:22.757Z,0.8
2019-05-07T07:40:33.582Z,0.8
2019-05-07T07:41:44.385Z,0.4
2019-05-07T07:42:22.385Z,0.6
2019-05-07T07:43:33.367Z,0.2
2019-05-07T07:44:44.462Z,0.4
2019-05-07T07:45:33.278Z,0.4
2019-05-07T07:46:44.395Z,0.8
2019-05-07T07:47:22.839Z,0.9
2019-05-07T07:48:33.033Z,0.9
2019-05-07T07:49:15.669Z,0.8
2019-05-07T07:50:23.114Z,0.9
2019-05-07T07:51:46.610Z,1
2019-05-07T07:52:20.376Z,1.1
2019-05-07T07:53:36.193Z,1.1
2019-05-07T07:54:44.393Z,0.8
2019-05-07T07:55:22.727Z,1
2019-05-07T07:56:56.825Z,0.8
2019-05-07T07:57:44.340Z,0.9
2019-05-07T07:58:22.641Z,0.8
2019-05-07T07:59:33.716Z,0.6
2019-05-07T08:00:44.433Z,0.8
2019-05-07T08:01:22.834Z,1.2
2019-05-07T08:02:33.087Z,0.6
2019-05-07T08:03:44.409Z,1
2019-05-07T08:04:22.589Z,1
2019-05-07T08:05:56.356Z,1.1
2019-05-07T08:06:33.501Z,1.4
2019-05-07T08:07:08.459Z,1.1
2019-05-07T08:08:08.344Z,1.4
2019-05-07T08:08:44.427Z,1.1
2019-05-07T08:09:26.391Z,1.3
2019-05-07T08:10:22.848Z,0.8
2019-05-07T08:10:56.389Z,0.8
2019-05-07T08:11:32.796Z,1.1
2019-05-07T08:12:44.429Z,1.3
2019-05-07T08:13:44.324Z,1
2019-05-07T08:14:22.676Z,1.2
2019-05-07T08:15:25.110Z,1.2
2019-05-07T08:15:44.414Z,0.8
2019-05-07T08:16:56.372Z,0.6
2019-05-07T08:17:44.334Z,0.9
2019-05-07T08:18:56.398Z,1.1
2019-05-07T08:19:33.757Z,0.9
2019-05-07T08:20:44.413Z,1.5
2019-05-07T08:21:56.349Z,0.6
2019-05-07T08:22:33.827Z,0.4
2019-05-07T08:23:44.402Z,0.7
2019-05-07T08:24:56.301Z,0.7
2019-05-07T08:26:08.358Z,0.4
2019-05-07T08:26:44.336Z,0.5
2019-05-07T08:27:59.000Z,0.9
2019-05-07T08:29:08.326Z,0.8
2019-05-07T08:29:44.309Z,0.6
2019-05-07T08:30:56.364Z,0.9
2019-05-07T08:31:44.376Z,0.6
2019-05-07T08:32:56.441Z,0.8
2019-05-07T08:34:08.366Z,1
2019-05-07T08:34:44.339Z,1.2
2019-05-07T08:35:33.455Z,1.2
2019-05-07T08:36:22.909Z,1
2019-05-07T08:36:56.427Z,0.9
2019-05-07T08:37:44.436Z,0.9
2019-05-07T08:38:56.382Z,0.8
2019-05-07T08:40:44.382Z,0.8
2019-05-07T08:41:56.326Z,1
2019-05-07T08:43:08.498Z,1
2019-05-07T08:43:44.440Z,0.9
2019-05-07T08:44:56.722Z,0.9
2019-05-07T08:45:33.664Z,0.8
2019-05-07T08:46:44.389Z,0.8
2019-05-07T08:47:56.505Z,0.6
2019-05-07T08:49:08.384Z,0.2
2019-05-07T08:49:44.495Z,0.6
2019-05-07T08:50:56.343Z,0.8
2019-05-07T08:52:44.353Z,0.9
2019-05-07T08:53:44.418Z,0.6
2019-05-07T08:54:22.256Z,0.9
2019-05-07T08:54:56.339Z,1.5
2019-05-07T08:56:08.450Z,1.8
2019-05-07T08:56:44.354Z,3.2
2019-05-07T08:57:56.323Z,3.9
2019-05-07T08:59:08.357Z,2.4
2019-05-07T09:00:05.130Z,1.5
2019-05-07T09:01:44.385Z,2.2
2019-05-07T09:02:56.496Z,0.8
2019-05-07T09:04:08.390Z,0.8
2019-05-07T09:04:44.338Z,0.8
2019-05-07T09:05:56.303Z,0.8
2019-05-07T09:07:08.348Z,0.6
2019-05-07T09:07:44.321Z,0.6
2019-05-07T09:08:32.914Z,0.8
2019-05-07T09:09:08.297Z,1
2019-05-07T09:09:44.406Z,0.9
2019-05-07T09:10:56.316Z,0.8
2019-05-07T09:12:08.381Z,0.8
2019-05-07T09:12:44.340Z,0.8
2019-05-07T09:13:34.137Z,0.8
2019-05-07T09:14:56.307Z,2.7
2019-05-07T09:16:20.320Z,1
2019-05-07T09:16:56.381Z,1.2
2019-05-07T09:18:08.378Z,0.8
2019-05-07T09:18:44.291Z,1
2019-05-07T09:20:20.266Z,0.9
2019-05-07T09:20:56.355Z,1
2019-05-07T09:21:44.358Z,0.9
2019-05-07T09:22:20.337Z,0.9
2019-05-07T09:23:32.832Z,0.8
2019-05-07T09:24:44.331Z,0.8
2019-05-07T09:25:44.351Z,1
2019-05-07T09:26:22.905Z,1
2019-05-07T09:26:56.284Z,1
2019-05-07T09:27:33.631Z,1.2
2019-05-07T09:28:22.716Z,1.2
2019-05-07T09:28:56.352Z,1
2019-05-07T09:29:44.369Z,0.9
2019-05-07T09:30:56.299Z,0.8
2019-05-07T09:32:08.346Z,0.9
2019-05-07T09:32:44.325Z,0.6
2019-05-07T09:33:56.381Z,0.6
2019-05-07T09:35:44.295Z,0.9
2019-05-07T09:36:56.343Z,0.8
2019-05-07T09:38:59.952Z,0.9
2019-05-07T09:39:56.324Z,1
2019-05-07T09:41:08.374Z,0.9
2019-05-07T09:41:44.343Z,0.8
2019-05-07T09:42:56.279Z,0
2019-05-07T09:44:08.361Z,0.8
2019-05-07T09:44:44.310Z,0.8
2019-05-07T09:45:56.364Z,0.8
2019-05-07T09:47:44.285Z,0.4
2019-05-07T09:48:56.365Z,0.8
2019-05-07T09:50:44.354Z,0.7
2019-05-07T09:51:56.312Z,0.4
2019-05-07T09:53:08.366Z,0.6
2019-05-07T09:53:44.315Z,1.1
2019-05-07T09:54:33.189Z,1.3
2019-05-07T09:55:18.171Z,1.1
2019-05-07T09:56:32.823Z,1.3
2019-05-07T09:57:34.695Z,1
2019-05-07T09:58:08.258Z,1.1
2019-05-07T09:58:44.341Z,0.8
2019-05-07T09:59:33.336Z,0.8
2019-05-07T10:00:32.835Z,0.8
2019-05-07T10:01:08.333Z,0.8
2019-05-07T10:01:56.347Z,1
2019-05-07T10:03:08.266Z,1.1
2019-05-07T10:03:44.246Z,1
2019-05-07T10:04:33.525Z,0.8
2019-05-07T10:05:44.335Z,0.8
2019-05-07T10:07:22.848Z,1.2
2019-05-07T10:07:56.269Z,1.2
2019-05-07T10:09:08.316Z,0.6
2019-05-07T10:09:56.377Z,0.6
2019-05-07T10:10:56.246Z,0.8
2019-05-07T10:11:33.783Z,0.8
2019-05-07T10:12:08.311Z,0.8
2019-05-07T10:13:20.225Z,1.2
2019-05-07T10:13:56.321Z,1.2
2019-05-07T10:15:08.310Z,1.3
2019-05-07T10:15:56.266Z,1.3
2019-05-07T10:17:08.311Z,1.4
2019-05-07T10:18:20.258Z,0.8
2019-05-07T10:19:22.750Z,1.1
2019-05-07T10:19:56.258Z,1.7
2019-05-07T10:20:44.264Z,1
2019-05-07T10:21:22.586Z,1.1
2019-05-07T10:22:08.227Z,0.4
2019-05-07T10:22:44.317Z,0
2019-05-07T10:23:56.272Z,0.8
2019-05-07T10:24:32.276Z,0.8
2019-05-07T10:25:08.306Z,0.8
2019-05-07T10:26:20.242Z,0.6
2019-05-07T10:26:56.207Z,0.6
2019-05-07T10:28:32.955Z,1.4
2019-05-07T10:29:08.310Z,1
2019-05-07T10:29:44.272Z,0.6
2019-05-07T10:30:22.586Z,0.8
2019-05-07T10:32:08.273Z,1.5
2019-05-07T10:33:08.289Z,1.5
2019-05-07T10:33:44.273Z,1.5
2019-05-07T10:34:22.679Z,0.9
2019-05-07T10:35:08.231Z,0.8
2019-05-07T10:36:20.303Z,0.9
2019-05-07T10:37:32.844Z,0.8
2019-05-07T10:38:22.555Z,0.6
2019-05-07T10:38:56.319Z,0.8
2019-05-07T10:39:44.313Z,1
2019-05-07T10:40:44.246Z,2
2019-05-07T10:42:08.317Z,1.1
2019-05-07T10:42:44.305Z,1.5
2019-05-07T10:43:22.733Z,1.2
2019-05-07T10:44:32.965Z,0.8
2019-05-07T10:45:08.283Z,1.3
2019-05-07T10:46:32.799Z,1.4
2019-05-07T10:47:08.243Z,1
2019-05-07T10:48:22.554Z,0.8
2019-05-07T10:49:32.640Z,0.6
2019-05-07T10:50:08.299Z,0.8
2019-05-07T10:51:44.309Z,1.1
2019-05-07T10:52:32.715Z,0.9
2019-05-07T10:53:08.280Z,1.2
2019-05-07T10:53:44.256Z,1.2
2019-05-07T10:55:08.212Z,2.3
2019-05-07T10:55:46.393Z,3.5
2019-05-07T10:56:56.235Z,3.2
2019-05-07T10:57:33.695Z,4
2019-05-07T10:58:44.268Z,1.8
2019-05-07T10:59:56.210Z,3.6
2019-05-07T11:00:33.966Z,4.6
2019-05-07T11:01:44.233Z,2.6
2019-05-07T11:02:56.321Z,1.1
2019-05-07T11:04:08.219Z,1
2019-05-07T11:04:46.658Z,1.1
2019-05-07T11:05:56.248Z,0.8
2019-05-07T11:07:08.188Z,1.6
2019-05-07T11:07:44.299Z,1.3
2019-05-07T11:08:33.823Z,0.9
2019-05-07T11:09:44.221Z,0.8
2019-05-07T11:10:56.283Z,0.8
2019-05-07T11:12:08.230Z,0.6
2019-05-07T11:12:44.199Z,0.8
2019-05-07T11:13:56.942Z,1
2019-05-07T11:15:08.185Z,1.1
2019-05-07T11:15:44.285Z,1.7
2019-05-07T11:16:56.219Z,3.1
2019-05-07T11:18:44.233Z,2.5
2019-05-07T11:19:56.178Z,1.4
2019-05-07T11:20:53.313Z,1.9
2019-05-07T11:21:56.326Z,1.1
2019-05-07T11:22:33.638Z,1.5
2019-05-07T11:23:44.269Z,1.4
2019-05-07T11:24:32.922Z,2
2019-05-07T11:25:08.242Z,1.9
2019-05-07T11:26:08.299Z,1.5
2019-05-07T11:26:44.239Z,1
2019-05-07T11:27:22.506Z,0.9
2019-05-07T11:28:08.198Z,0.9
2019-05-07T11:28:56.306Z,0.9
2019-05-07T11:29:37.070Z,0.8
2019-05-07T11:30:20.183Z,1.2
2019-05-07T11:31:33.906Z,1.2
2019-05-07T11:32:08.314Z,0.9
2019-05-07T11:33:22.511Z,0.9
2019-05-07T11:34:33.598Z,0.9
2019-05-07T11:35:08.286Z,0.8
2019-05-07T11:36:35.122Z,0.9
2019-05-07T11:37:08.295Z,0.9
2019-05-07T11:38:25.671Z,1.3
2019-05-07T11:39:34.025Z,1.2
2019-05-07T11:40:08.184Z,1.7
2019-05-07T11:41:20.257Z,0.9
2019-05-07T11:42:32.306Z,0.6
2019-05-07T11:43:08.283Z,0.6
2019-05-07T11:44:08.183Z,0.8
2019-05-07T11:44:56.204Z,1.1
2019-05-07T11:45:32.934Z,1.1
2019-05-07T11:46:08.233Z,1.2
2019-05-07T11:47:32.813Z,0.9
2019-05-07T11:48:08.193Z,0.6
2019-05-07T11:49:22.942Z,1.7
2019-05-07T11:50:33.834Z,2.6
2019-05-07T11:51:20.168Z,4.1
2019-05-07T11:52:36.615Z,3.1
2019-05-07T11:53:08.195Z,2.6
2019-05-07T11:54:20.264Z,2.3
2019-05-07T11:55:32.202Z,1.1
2019-05-07T11:56:08.158Z,1.3
2019-05-07T11:57:22.388Z,1.8
2019-05-07T11:58:33.398Z,1
2019-05-07T11:59:22.258Z,3
2019-05-07T12:00:33.221Z,2.8
2019-05-07T12:01:08.186Z,1.5
2019-05-07T12:01:48.795Z,0.9
2019-05-07T12:03:33.310Z,1.8
2019-05-07T12:04:08.166Z,1.7
2019-05-07T12:05:22.201Z,0.9
2019-05-07T12:06:33.022Z,0.8
2019-05-07T12:07:08.267Z,1.1
2019-05-07T12:08:36.504Z,0.6
2019-05-07T12:09:34.197Z,0.2
2019-05-07T12:10:08.289Z,0.8
2019-05-07T12:11:22.354Z,0.4
2019-05-07T12:12:33.451Z,0.4
2019-05-07T12:13:08.192Z,0.8
2019-05-07T12:14:35.413Z,0.4
2019-05-07T12:15:33.319Z,0.8
2019-05-07T12:16:08.149Z,0.6
2019-05-07T12:17:22.240Z,0.8
2019-05-07T12:18:32.804Z,0.4
2019-05-07T12:19:08.237Z,0.4
2019-05-07T12:20:22.356Z,0
2019-05-07T12:21:32.211Z,0.4
2019-05-07T12:22:08.198Z,0
2019-05-07T12:23:20.139Z,0.2
2019-05-07T12:24:33.659Z,0
2019-05-07T12:25:08.196Z,0.4
2019-05-07T12:26:22.494Z,0.2
2019-05-07T12:27:44.228Z,0.6
2019-05-07T12:28:21.942Z,0.9
2019-05-07T12:29:08.140Z,0.9
2019-05-07T12:30:22.438Z,0.8
2019-05-07T12:31:34.344Z,0.8
2019-05-07T12:32:33.203Z,1.2
2019-05-07T12:33:08.166Z,1.3
2019-05-07T12:34:08.186Z,1
2019-05-07T12:35:08.365Z,1.2
2019-05-07T12:36:20.157Z,1.1
2019-05-07T12:36:56.240Z,1.3
2019-05-07T12:37:32.883Z,1.3
2019-05-07T12:38:22.432Z,0.6
2019-05-07T12:39:08.207Z,0.8
2019-05-07T12:40:08.649Z,1
2019-05-07T12:40:56.226Z,0.9
2019-05-07T12:41:35.060Z,0.8
2019-05-07T12:42:08.152Z,0.8
2019-05-07T12:43:20.214Z,0.2
2019-05-07T12:44:32.854Z,0.8
2019-05-07T12:47:08.209Z,0.2
2019-05-07T12:47:56.207Z,0.8
2019-05-07T12:48:56.263Z,1.4
2019-05-07T12:49:33.318Z,1.3
2019-05-07T12:50:22.458Z,0.8
2019-05-07T12:50:56.153Z,0.8
2019-05-07T12:52:44.189Z,0.9
2019-05-07T12:59:56.207Z,0.8
2019-05-07T13:04:58.900Z,0.8
2019-05-07T13:06:22.316Z,0.4
2019-05-07T13:09:08.098Z,0.6
2019-05-07T13:09:44.191Z,0.6
2019-05-07T13:10:22.357Z,0.4
2019-05-07T13:11:08.187Z,0.2
2019-05-07T13:12:08.186Z,0.8
2019-05-07T13:13:08.099Z,0.4
2019-05-07T13:13:44.195Z,0.4
2019-05-07T13:14:22.602Z,0.6
2019-05-07T13:15:33.460Z,0.4
2019-05-07T13:16:08.184Z,0.4
2019-05-07T13:17:22.250Z,1.1
2019-05-07T13:18:32.201Z,0.8
2019-05-07T13:19:08.154Z,0.6
2019-05-07T13:20:20.215Z,0.8
2019-05-07T13:21:50.351Z,0.6
2019-05-07T13:23:32.697Z,1
2019-05-07T13:24:08.182Z,0.5
2019-05-07T13:25:56.319Z,1.5
2019-05-07T13:26:33.087Z,2.1
2019-05-07T13:27:08.145Z,1.8
2019-05-07T13:29:22.371Z,1.1
2019-05-07T13:30:56.194Z,0.8
2019-05-07T13:31:33.520Z,0.6
2019-05-07T13:32:32.812Z,1.1
2019-05-07T13:33:08.217Z,0.8
2019-05-07T13:33:44.185Z,0.8
2019-05-07T13:34:34.868Z,2.2
2019-05-07T13:35:56.127Z,1.6
2019-05-07T13:36:44.161Z,1.6
2019-05-07T13:39:33.461Z,2.4
2019-05-07T13:40:20.191Z,2.6
2019-05-07T13:41:20.125Z,1.3
2019-05-07T13:42:08.109Z,1.4
2019-05-07T13:42:56.085Z,1.7
2019-05-07T13:44:08.169Z,1.8
2019-05-07T13:45:08.175Z,2.7
2019-05-07T13:47:44.148Z,0.8
2019-05-07T13:48:46.496Z,0.6
2019-05-07T13:49:33.127Z,1
2019-05-07T13:50:08.079Z,0.8
2019-05-07T13:50:44.185Z,0.8
2019-05-07T13:52:08.146Z,0.8
2019-05-07T13:52:44.365Z,0.8
2019-05-07T13:53:56.168Z,0.8
2019-05-07T13:55:44.084Z,0.8
2019-05-07T13:56:56.135Z,0.6
2019-05-07T13:58:08.079Z,0.4
2019-05-07T13:58:44.158Z,0.5
2019-05-07T13:59:56.094Z,0.2
2019-05-07T14:01:44.157Z,0.4
2019-05-07T14:02:56.104Z,0.4
2019-05-07T14:03:33.868Z,0.4
2019-05-07T14:04:44.096Z,0.2
2019-05-07T14:05:56.165Z,0
2019-05-07T14:07:22.382Z,0.6
2019-05-07T14:08:20.148Z,1.1
2019-05-07T14:09:08.191Z,0.8
2019-05-07T14:09:44.130Z,0.8
2019-05-07T14:10:20.087Z,0.6
2019-05-07T14:11:35.571Z,0.9
2019-05-07T14:12:44.085Z,0.4
2019-05-07T14:13:22.194Z,0.2
2019-05-07T14:14:35.242Z,0.4
2019-05-07T14:15:44.170Z,1
2019-05-07T14:16:22.202Z,0.4
2019-05-07T14:17:32.329Z,0.6
2019-05-07T14:18:44.136Z,0.2
2019-05-07T14:19:22.721Z,0.6
2019-05-07T14:20:44.080Z,2.8
2019-05-07T14:21:22.423Z,2.2
2019-05-07T14:22:32.793Z,1.2
2019-05-07T14:23:22.262Z,1.6
2019-05-07T14:24:33.697Z,0.8
2019-05-07T14:25:24.004Z,0.8
2019-05-07T14:26:33.351Z,0.9
2019-05-07T14:27:44.181Z,1.1
2019-05-07T14:28:23.989Z,0.9
2019-05-07T14:29:32.949Z,0.8
2019-05-07T14:30:44.132Z,0.2
2019-05-07T14:31:20.095Z,0.2
2019-05-07T14:32:32.152Z,0.9
2019-05-07T14:33:44.105Z,0.6
2019-05-07T14:34:20.067Z,0.4
2019-05-07T14:35:33.057Z,0.4
2019-05-07T14:36:44.060Z,0.6
2019-05-07T14:37:22.544Z,0.6
2019-05-07T14:38:32.931Z,0.6
2019-05-07T14:39:44.144Z,1.1
2019-05-07T14:40:22.263Z,0.2
2019-05-07T14:41:33.410Z,0.2
2019-05-07T14:42:44.110Z,0.4
2019-05-07T14:43:22.157Z,0.6
2019-05-07T14:44:32.562Z,0.2
2019-05-07T14:45:44.105Z,0.4
2019-05-07T14:46:20.044Z,0.4
2019-05-07T14:47:32.110Z,0.2
2019-05-07T14:48:44.701Z,0.4
2019-05-07T14:49:20.127Z,0.4
2019-05-07T14:50:33.847Z,0.8
2019-05-07T14:51:56.116Z,1.8
2019-05-07T14:52:36.867Z,2
2019-05-07T14:53:56.081Z,1
2019-05-07T14:54:33.088Z,0.8
2019-05-07T14:55:44.130Z,1.5
2019-05-07T14:56:20.086Z,0.6
2019-05-07T14:57:33.320Z,0.9
2019-05-07T14:58:44.085Z,1
2019-05-07T14:59:20.055Z,0.8
2019-05-07T15:00:35.494Z,1
2019-05-07T15:01:44.043Z,0.6
2019-05-07T15:02:20.035Z,0.6
2019-05-07T15:03:32.760Z,0.4
2019-05-07T15:04:44.031Z,0.7
2019-05-07T15:05:22.202Z,1.8
2019-05-07T15:06:33.333Z,2.1
2019-05-07T15:07:44.106Z,0.6
2019-05-07T15:08:22.429Z,0.8
2019-05-07T15:09:32.627Z,0.8
2019-05-07T15:10:44.096Z,0.8
2019-05-07T15:11:20.049Z,0.8
2019-05-07T15:12:33.904Z,0.9
2019-05-07T15:13:22.496Z,1.4
2019-05-07T15:14:32.728Z,1.5
2019-05-07T15:15:44.135Z,1.2
2019-05-07T15:16:32.844Z,1
2019-05-07T15:17:44.053Z,0.9
2019-05-07T15:18:23.039Z,1.3
2019-05-07T15:19:32.922Z,0.8
2019-05-07T15:20:44.124Z,1.2
2019-05-07T15:21:20.090Z,1.4
2019-05-07T15:22:52.905Z,2.3
2019-05-07T15:23:20.023Z,2.4
2019-05-07T15:24:33.470Z,2.2
2019-05-07T15:25:44.032Z,1.1
2019-05-07T15:26:22.298Z,0.8
2019-05-07T15:27:33.215Z,0.7
2019-05-07T15:28:44.108Z,0.6
2019-05-07T15:29:22.234Z,0.6
2019-05-07T15:30:33.299Z,1
2019-05-07T15:31:44.131Z,0.9
2019-05-07T15:32:22.316Z,1
2019-05-07T15:33:33.188Z,0.9
2019-05-07T15:34:44.068Z,0.6